createdAt,value
2023-04-18T00:01:43.144Z,12.90
2023-04-18T00:04:51.347Z,12.80
2023-04-18T00:08:13.687Z,13.10
2023-04-18T00:11:34.077Z,12.50
2023-04-18T00:14:38.086Z,11.90
2023-04-18T00:18:14.360Z,12.10
2023-04-18T00:21:40.385Z,12.50
2023-04-18T00:25:09.584Z,11.10
2023-04-18T00:28:33.976Z,12.70
2023-04-18T00:32:11.831Z,12.60
2023-04-18T00:35:39.448Z,13.10
2023-04-18T00:39:01.686Z,11.90
2023-04-18T00:42:33.467Z,13.30
2023-04-18T00:45:39.613Z,12.20
2023-04-18T00:49:11.071Z,11.80
2023-04-18T00:52:39.868Z,12.30
2023-04-18T00:56:06.304Z,11.50
2023-04-18T00:59:33.654Z,12.30
2023-04-18T01:02:53.393Z,12.30
2023-04-18T01:06:33.084Z,12.70
2023-04-18T01:09:58.914Z,12.10
2023-04-18T01:13:50.024Z,12.60
2023-04-18T01:17:06.632Z,12.50
2023-04-18T01:24:30.446Z,13.10
2023-04-18T01:27:34.236Z,12.40
2023-04-18T01:31:05.402Z,12.10
2023-04-18T01:34:20.560Z,13.00
2023-04-18T01:37:39.933Z,12.30
2023-04-18T01:41:14.404Z,12.20
2023-04-18T01:44:34.601Z,12.50
2023-04-18T01:47:43.086Z,12.70
2023-04-18T01:51:04.493Z,12.30
2023-04-18T01:54:43.624Z,11.80
2023-04-18T01:58:04.323Z,12.20
2023-04-18T02:01:22.997Z,12.60
2023-04-18T02:05:03.657Z,12.00
2023-04-18T02:08:18.207Z,12.10
2023-04-18T02:11:37.483Z,11.90
2023-04-18T02:15:02.590Z,12.20
2023-04-18T02:18:11.515Z,12.20
2023-04-18T02:21:20.243Z,13.10
2023-04-18T02:24:42.101Z,13.20
2023-04-18T02:27:56.055Z,12.10
2023-04-18T02:31:35.874Z,12.00
2023-04-18T02:34:58.001Z,12.60
2023-04-18T02:38:21.671Z,12.10
2023-04-18T02:41:40.741Z,11.30
2023-04-18T02:45:07.074Z,11.60
2023-04-18T02:48:30.854Z,11.70
2023-04-18T02:51:39.572Z,12.10
2023-04-18T02:55:00.425Z,12.40
2023-04-18T02:58:19.282Z,11.50
2023-04-18T03:01:48.407Z,12.50
2023-04-18T03:05:10.748Z,11.30
2023-04-18T03:08:26.979Z,11.70
2023-04-18T03:11:32.320Z,11.00
2023-04-18T03:14:56.620Z,12.90
2023-04-18T03:18:13.627Z,12.20
2023-04-18T03:21:22.554Z,12.30
2023-04-18T03:24:50.833Z,11.30
2023-04-18T03:27:53.099Z,13.00
2023-04-18T03:31:10.250Z,12.20
2023-04-18T03:34:22.935Z,13.30
2023-04-18T03:37:38.418Z,12.30
2023-04-18T03:41:06.406Z,13.50
2023-04-18T03:44:26.787Z,14.20
2023-04-18T03:47:58.330Z,12.80
2023-04-18T03:51:29.900Z,12.80
2023-04-18T03:54:47.125Z,12.90
2023-04-18T03:58:16.738Z,13.50
2023-04-18T04:01:46.664Z,13.70
2023-04-18T04:05:05.157Z,13.30
2023-04-18T04:08:28.236Z,13.00
2023-04-18T04:12:00.564Z,13.50
2023-04-18T04:15:12.956Z,13.80
2023-04-18T04:18:31.916Z,14.50
2023-04-18T04:21:55.859Z,15.00
2023-04-18T04:28:28.909Z,14.40
2023-04-18T04:31:55.786Z,15.50
2023-04-18T04:34:52.295Z,15.00
2023-04-18T04:37:49.441Z,13.60
2023-04-18T04:40:44.338Z,14.40
2023-04-18T04:43:47.172Z,15.50
2023-04-18T04:49:30.975Z,15.30
2023-04-18T04:52:12.976Z,14.50
2023-04-18T04:54:56.200Z,14.90
2023-04-18T04:57:40.787Z,15.50
2023-04-18T05:00:42.515Z,14.00
2023-04-18T05:03:36.885Z,15.30
2023-04-18T05:06:40.237Z,15.30
2023-04-18T05:09:24.249Z,15.20
2023-04-18T05:12:07.578Z,15.60
2023-04-18T05:14:55.711Z,15.80
2023-04-18T05:17:55.059Z,16.90
2023-04-18T05:21:03.130Z,16.40
2023-04-18T05:23:58.836Z,17.20
2023-04-18T05:27:06.234Z,16.60
2023-04-18T05:29:53.039Z,16.40
2023-04-18T05:32:46.209Z,17.50
2023-04-18T05:35:30.240Z,17.50
2023-04-18T05:38:20.232Z,17.60
2023-04-18T05:41:12.361Z,17.70
2023-04-18T05:44:16.839Z,17.10
2023-04-18T05:47:11.177Z,18.50
2023-04-18T05:50:17.334Z,18.40
2023-04-18T05:52:59.457Z,17.50
2023-04-18T05:55:46.757Z,16.20
2023-04-18T05:58:38.684Z,17.90
2023-04-18T06:01:18.968Z,18.10
2023-04-18T06:04:14.381Z,16.80
2023-04-18T06:07:06.992Z,18.00
2023-04-18T06:10:16.682Z,17.30
2023-04-18T06:13:13.683Z,17.40
2023-04-18T06:16:06.953Z,17.30
2023-04-18T06:19:06.265Z,17.60
2023-04-18T06:21:53.355Z,16.80
2023-04-18T06:24:44.986Z,17.40
2023-04-18T06:27:50.123Z,15.50
2023-04-18T06:30:37.034Z,15.50
2023-04-18T06:33:32.342Z,15.20
2023-04-18T06:36:14.120Z,15.20
2023-04-18T06:38:52.987Z,15.70
2023-04-18T06:41:38.746Z,14.90
2023-04-18T06:44:32.211Z,16.10
2023-04-18T06:47:31.872Z,15.20
2023-04-18T06:50:23.742Z,15.40
2023-04-18T06:53:12.430Z,15.20
2023-04-18T06:55:55.923Z,15.40
2023-04-18T06:58:42.941Z,15.70
2023-04-18T07:01:25.893Z,15.10
2023-04-18T07:04:14.499Z,14.20
2023-04-18T07:07:10.130Z,14.30
2023-04-18T07:10:09.130Z,14.50
2023-04-18T07:12:48.073Z,14.50
2023-04-18T07:15:41.098Z,14.90
2023-04-18T07:18:34.254Z,14.60
2023-04-18T07:21:26.821Z,15.80
2023-04-18T07:24:27.240Z,14.50
2023-04-18T07:27:10.560Z,14.30
2023-04-18T07:29:59.103Z,14.40
2023-04-18T07:32:53.420Z,14.10
2023-04-18T07:35:46.956Z,14.30
2023-04-18T07:38:53.014Z,14.40
2023-04-18T07:41:33.168Z,14.40
2023-04-18T07:44:29.606Z,14.90
2023-04-18T07:47:29.416Z,14.50
2023-04-18T07:50:24.967Z,13.70
2023-04-18T07:53:43.697Z,13.80
2023-04-18T07:56:52.004Z,14.40
2023-04-18T07:59:57.043Z,15.30
2023-04-18T08:03:07.696Z,14.20
2023-04-18T08:06:17.044Z,13.30
2023-04-18T08:09:14.327Z,14.00
2023-04-18T08:11:56.914Z,13.50
2023-04-18T08:14:51.092Z,14.30
2023-04-18T08:17:56.019Z,14.30
2023-04-18T08:20:35.371Z,13.70
2023-04-18T08:23:31.695Z,12.90
2023-04-18T08:26:15.536Z,13.70
2023-04-18T08:28:53.430Z,14.20
2023-04-18T08:31:38.060Z,14.00
2023-04-18T08:34:38.001Z,13.70
2023-04-18T08:37:21.947Z,13.50
2023-04-18T08:40:25.150Z,14.50
2023-04-18T08:43:10.311Z,13.40
2023-04-18T08:45:52.832Z,12.90
2023-04-18T08:48:45.364Z,14.30
2023-04-18T08:51:44.153Z,13.20
2023-04-18T08:54:44.273Z,13.90
2023-04-18T08:57:56.506Z,13.70
2023-04-18T09:00:46.355Z,14.40
2023-04-18T09:04:08.933Z,14.00
2023-04-18T09:06:52.975Z,13.80
2023-04-18T09:09:49.276Z,14.10
2023-04-18T09:12:47.964Z,13.50
2023-04-18T09:15:45.837Z,14.00
2023-04-18T09:18:43.358Z,14.20
2023-04-18T09:21:57.748Z,14.30
2023-04-18T09:24:56.862Z,14.60
2023-04-18T09:27:47.752Z,16.00
2023-04-18T09:30:47.659Z,15.60
2023-04-18T09:33:44.961Z,16.40
2023-04-18T09:36:35.448Z,17.10
2023-04-18T09:39:45.702Z,16.80
2023-04-18T09:42:39.964Z,16.00
2023-04-18T09:45:58.131Z,16.50
2023-04-18T09:49:12.964Z,16.00
2023-04-18T09:52:36.334Z,18.10
2023-04-18T09:56:07.279Z,17.80
2023-04-18T09:59:43.541Z,17.60
2023-04-18T10:03:12.176Z,17.30
2023-04-18T10:06:37.754Z,16.20
2023-04-18T10:10:05.027Z,16.30
2023-04-18T10:13:17.881Z,16.30
2023-04-18T10:16:50.501Z,16.00
2023-04-18T10:20:11.913Z,17.20
2023-04-18T10:23:56.186Z,17.60
2023-04-18T10:27:15.679Z,16.90
2023-04-18T10:30:37.497Z,17.30
2023-04-18T10:34:18.479Z,16.60
2023-04-18T10:37:35.279Z,18.00
2023-04-18T10:40:49.534Z,17.40
2023-04-18T10:44:38.118Z,17.30
2023-04-18T10:48:16.320Z,17.00
2023-04-18T10:51:59.124Z,16.70
2023-04-18T11:03:10.622Z,17.20
2023-04-18T11:06:25.942Z,16.80
2023-04-18T11:09:40.585Z,16.40
2023-04-18T11:12:42.566Z,17.10
2023-04-18T11:15:36.031Z,17.00
2023-04-18T11:18:54.993Z,18.70
2023-04-18T11:22:07.816Z,19.40
2023-04-18T11:25:00.791Z,18.20
2023-04-18T11:28:13.684Z,18.10
2023-04-18T11:31:18.521Z,18.30
2023-04-18T11:34:21.204Z,18.90
2023-04-18T11:37:48.660Z,17.90
2023-04-18T11:41:15.528Z,18.00
2023-04-18T11:44:11.987Z,18.40
2023-04-18T11:47:41.957Z,17.90
2023-04-18T11:50:39.322Z,18.10
2023-04-18T11:53:50.396Z,18.50
2023-04-18T11:56:39.559Z,18.50
2023-04-18T11:59:38.863Z,18.20
2023-04-18T12:03:06.234Z,17.60
2023-04-18T12:05:58.548Z,16.90
2023-04-18T12:09:28.628Z,18.10
2023-04-18T12:12:38.415Z,16.60
2023-04-18T12:15:23.511Z,17.40
2023-04-18T12:18:20.239Z,18.30
2023-04-18T12:21:15.244Z,19.20
2023-04-18T12:23:59.591Z,19.30
2023-04-18T12:27:12.105Z,18.00
2023-04-18T12:30:04.241Z,17.10
2023-04-18T12:33:15.826Z,15.70
2023-04-18T12:36:10.666Z,16.30
2023-04-18T12:39:04.910Z,15.60
2023-04-18T12:42:06.468Z,16.10
2023-04-18T12:45:13.543Z,15.40
2023-04-18T12:48:13.363Z,15.60
2023-04-18T12:51:25.173Z,16.50
2023-04-18T12:54:15.353Z,16.40
2023-04-18T12:57:32.047Z,16.40
2023-04-18T13:00:30.372Z,17.20
2023-04-18T13:03:41.912Z,15.00
2023-04-18T13:06:54.562Z,15.80
2023-04-18T13:09:51.067Z,15.40
2023-04-18T13:12:49.695Z,14.30
2023-04-18T13:15:55.048Z,15.10
2023-04-18T13:18:45.493Z,14.10
2023-04-18T13:21:49.478Z,14.50
2023-04-18T13:24:38.351Z,15.30
2023-04-18T13:27:29.696Z,15.00
2023-04-18T13:30:15.893Z,14.60
2023-04-18T13:33:07.958Z,15.30
2023-04-18T13:36:08.229Z,14.70
2023-04-18T13:39:07.647Z,16.20
2023-04-18T13:41:56.187Z,15.30
2023-04-18T13:44:50.777Z,16.50
2023-04-18T13:47:30.566Z,15.10
2023-04-18T13:50:24.529Z,14.70
2023-04-18T13:53:16.320Z,14.90
2023-04-18T13:55:56.677Z,15.10
2023-04-18T13:59:10.280Z,15.30
2023-04-18T14:01:46.908Z,16.70
2023-04-18T14:04:27.655Z,17.80
2023-04-18T14:07:19.789Z,17.40
2023-04-18T14:10:16.020Z,17.50
2023-04-18T14:13:12.656Z,16.00
2023-04-18T14:16:00.855Z,15.30
2023-04-18T14:18:54.463Z,15.00
2023-04-18T14:21:58.382Z,14.90
2023-04-18T14:24:52.658Z,16.90
2023-04-18T14:27:36.351Z,17.30
2023-04-18T14:30:24.436Z,16.80
2023-04-18T14:33:27.424Z,19.40
2023-04-18T14:36:18.230Z,18.10
2023-04-18T14:39:13.451Z,16.70
2023-04-18T14:41:56.144Z,16.20
2023-04-18T14:44:48.997Z,14.50
2023-04-18T14:47:46.607Z,15.80
2023-04-18T14:50:34.500Z,16.50
2023-04-18T14:53:30.005Z,17.40
2023-04-18T14:56:15.998Z,18.30
2023-04-18T14:58:55.734Z,17.40
2023-04-18T15:01:57.538Z,18.20
2023-04-18T15:04:35.080Z,18.80
2023-04-18T15:07:15.251Z,16.80
2023-04-18T15:09:58.260Z,18.90
2023-04-18T15:12:39.538Z,17.90
2023-04-18T15:15:40.112Z,16.60
2023-04-18T15:18:30.368Z,16.50
2023-04-18T15:21:19.014Z,18.80
2023-04-18T15:23:52.613Z,18.20
2023-04-18T15:26:31.694Z,18.90
2023-04-18T15:29:12.835Z,19.60
2023-04-18T15:31:49.473Z,18.70
2023-04-18T15:34:31.381Z,17.20
2023-04-18T15:37:05.807Z,17.30
2023-04-18T15:39:40.134Z,16.80
2023-04-18T15:42:28.168Z,17.60
2023-04-18T15:45:12.709Z,17.80
2023-04-18T15:47:51.714Z,17.70
2023-04-18T15:50:39.269Z,18.90
2023-04-18T15:53:16.653Z,21.70
2023-04-18T15:56:08.070Z,22.20
2023-04-18T15:58:56.210Z,23.10
2023-04-18T16:01:49.287Z,22.10
2023-04-18T16:04:34.261Z,21.10
2023-04-18T16:07:24.090Z,21.10
2023-04-18T16:10:20.668Z,20.60
2023-04-18T16:13:03.354Z,18.70
2023-04-18T16:15:54.539Z,18.30
2023-04-18T16:18:32.478Z,17.10
2023-04-18T16:21:10.896Z,18.00
2023-04-18T16:24:11.808Z,18.50
2023-04-18T16:27:01.301Z,17.70
2023-04-18T16:32:24.405Z,18.30
2023-04-18T16:35:17.936Z,17.30
2023-04-18T16:38:01.992Z,16.70
2023-04-18T16:41:01.746Z,17.90
2023-04-18T16:43:43.896Z,20.20
2023-04-18T16:46:25.622Z,19.10
2023-04-18T16:49:16.391Z,18.80
2023-04-18T16:52:10.365Z,17.60
2023-04-18T16:55:21.863Z,18.20
2023-04-18T16:58:04.469Z,20.80
2023-04-18T17:01:03.248Z,20.70
2023-04-18T17:03:56.596Z,22.60
2023-04-18T17:06:41.795Z,21.10
2023-04-18T17:09:33.812Z,19.70
2023-04-18T17:12:31.885Z,18.90
2023-04-18T17:15:43.064Z,18.40
2023-04-18T17:18:30.901Z,17.80
2023-04-18T17:21:24.875Z,18.40
2023-04-18T17:24:23.258Z,16.70
2023-04-18T17:27:15.084Z,15.90
2023-04-18T17:29:59.336Z,15.80
2023-04-18T17:32:46.186Z,16.30
2023-04-18T17:35:50.561Z,16.50
2023-04-18T17:38:48.958Z,17.30
2023-04-18T17:41:55.508Z,15.80
2023-04-18T17:44:57.788Z,18.60
2023-04-18T17:47:42.602Z,17.60
2023-04-18T17:50:58.022Z,17.10
2023-04-18T17:54:01.027Z,15.70
2023-04-18T17:56:51.200Z,15.10
2023-04-18T17:59:37.846Z,16.40
2023-04-18T18:02:44.917Z,20.10
2023-04-18T18:05:40.922Z,19.70
2023-04-18T18:08:43.197Z,18.90
2023-04-18T18:11:53.981Z,25.10
2023-04-18T18:15:05.783Z,25.70
2023-04-18T18:18:14.648Z,20.60
2023-04-18T18:21:11.588Z,20.40
2023-04-18T18:24:36.019Z,27.20
2023-04-18T18:27:46.889Z,27.90
2023-04-18T18:30:45.696Z,24.40
2023-04-18T18:33:41.297Z,24.20
2023-04-18T18:36:54.216Z,28.80
2023-04-18T18:39:58.748Z,22.30
2023-04-18T18:42:57.730Z,32.20
2023-04-18T18:45:47.622Z,31.80
2023-04-18T18:48:58.082Z,34.50
2023-04-18T18:51:54.413Z,30.50
2023-04-18T18:57:37.955Z,21.20
2023-04-18T19:00:36.442Z,28.70
2023-04-18T19:03:22.849Z,24.90
2023-04-18T19:06:25.420Z,23.10
2023-04-18T19:09:09.978Z,31.60
2023-04-18T19:12:08.768Z,34.70
2023-04-18T19:15:03.277Z,25.70
2023-04-18T19:17:49.066Z,22.30
2023-04-18T19:20:49.572Z,24.20
2023-04-18T19:23:42.431Z,24.90
2023-04-18T19:26:45.308Z,24.80
2023-04-18T19:29:36.418Z,23.50
2023-04-18T19:32:27.842Z,28.80
2023-04-18T19:35:24.330Z,29.90
2023-04-18T19:38:22.557Z,28.40
2023-04-18T19:41:37.413Z,24.40
2023-04-18T19:44:29.346Z,26.90
2023-04-18T19:47:33.413Z,26.40
2023-04-18T19:50:34.396Z,25.50
2023-04-18T19:53:15.885Z,29.40
2023-04-18T19:55:59.416Z,28.00
2023-04-18T19:58:58.003Z,24.40
2023-04-18T20:01:46.756Z,21.70
2023-04-18T20:04:38.426Z,21.50
2023-04-18T20:07:49.944Z,19.50
2023-04-18T20:10:41.483Z,18.60
2023-04-18T20:13:24.707Z,17.90
2023-04-18T20:16:09.120Z,19.00
2023-04-18T20:19:04.162Z,21.30
2023-04-18T20:21:53.019Z,19.80
2023-04-18T20:24:42.900Z,21.00
2023-04-18T20:27:37.800Z,21.00
2023-04-18T20:30:51.369Z,17.50
2023-04-18T20:33:48.691Z,19.20
2023-04-18T20:36:26.087Z,21.50
2023-04-18T20:39:19.747Z,22.40
2023-04-18T20:42:24.074Z,17.20
2023-04-18T20:45:27.978Z,16.60
2023-04-18T20:48:33.316Z,18.10
2023-04-18T20:51:37.249Z,18.60
2023-04-18T20:54:23.322Z,19.90
2023-04-18T20:57:30.207Z,19.50
2023-04-18T21:00:30.528Z,22.60
2023-04-18T21:03:31.287Z,24.30
2023-04-18T21:06:22.196Z,25.80
2023-04-18T21:09:26.588Z,20.90
2023-04-18T21:12:21.794Z,18.40
2023-04-18T21:15:22.637Z,21.30
2023-04-18T21:18:29.952Z,23.30
2023-04-18T21:21:19.905Z,18.10
2023-04-18T21:24:24.837Z,20.30
2023-04-18T21:27:16.971Z,23.90
2023-04-18T21:30:09.355Z,19.40
2023-04-18T21:33:09.536Z,21.80
2023-04-18T21:36:05.147Z,19.40
2023-04-18T21:39:20.756Z,19.40
2023-04-18T21:42:18.909Z,17.70
2023-04-18T21:45:23.177Z,15.40
2023-04-18T21:48:31.853Z,14.30
2023-04-18T21:51:45.998Z,15.90
2023-04-18T21:55:00.354Z,13.40
2023-04-18T21:58:08.970Z,12.70
2023-04-18T22:01:26.760Z,13.60
2023-04-18T22:04:36.713Z,14.00
2023-04-18T22:07:59.170Z,14.50
2023-04-18T22:11:13.839Z,15.00
2023-04-18T22:14:21.462Z,14.40
2023-04-18T22:17:44.598Z,12.50
2023-04-18T22:21:05.837Z,13.30
2023-04-18T22:24:33.565Z,12.20
2023-04-18T22:27:18.269Z,12.60
2023-04-18T22:30:30.460Z,11.40
2023-04-18T22:33:48.893Z,12.40
2023-04-18T22:36:58.767Z,12.20
2023-04-18T22:39:43.939Z,12.30
2023-04-18T22:43:13.057Z,12.20
2023-04-18T22:46:07.966Z,11.90
2023-04-18T22:49:27.514Z,11.50
2023-04-18T22:52:25.913Z,11.30
2023-04-18T22:55:20.892Z,12.30
2023-04-18T22:58:12.541Z,11.40
2023-04-18T23:01:20.243Z,10.90
2023-04-18T23:04:29.243Z,11.10
2023-04-18T23:07:32.004Z,10.20
2023-04-18T23:10:23.037Z,10.30
2023-04-18T23:13:25.104Z,10.30
2023-04-18T23:16:29.279Z,10.30
2023-04-18T23:19:26.269Z,9.50
2023-04-18T23:22:20.557Z,10.20
2023-04-18T23:25:20.377Z,10.50
2023-04-18T23:28:25.576Z,10.70
2023-04-18T23:31:33.024Z,11.40
2023-04-18T23:34:47.558Z,11.60
2023-04-18T23:37:47.900Z,12.10
2023-04-18T23:40:51.793Z,11.40
2023-04-18T23:43:58.367Z,10.70
2023-04-18T23:46:53.348Z,10.80
2023-04-18T23:50:05.830Z,10.50
2023-04-18T23:53:08.968Z,10.30
2023-04-18T23:56:06.957Z,10.60
2023-04-18T23:59:14.950Z,10.60
